sensor_id;sensor_type;location;lat;lon;timestamp;pressure;altitude;pressure_sealevel;temperature;humidity
81931;BME280;71395;43.488;1.472;2023-08-20T00:01:52;99941.34;;;30.11;52.29
81931;BME280;71395;43.488;1.472;2023-08-20T00:04:19;99961.16;;;30.20;52.08
81931;BME280;71395;43.488;1.472;2023-08-20T00:06:45;99961.94;;;30.21;51.88
81931;BME280;71395;43.488;1.472;2023-08-20T00:09:11;99956.41;;;30.17;52.36
81931;BME280;71395;43.488;1.472;2023-08-20T00:11:36;99960.38;;;30.20;51.55
81931;BME280;71395;43.488;1.472;2023-08-20T00:14:02;99957.97;;;30.18;52.30
81931;BME280;71395;43.488;1.472;2023-08-20T00:16:28;99956.81;;;30.19;52.20
81931;BME280;71395;43.488;1.472;2023-08-20T00:18:53;99953.25;;;30.15;51.91
81931;BME280;71395;43.488;1.472;2023-08-20T00:21:19;99959.59;;;30.19;52.08
81931;BME280;71395;43.488;1.472;2023-08-20T00:23:45;99954.06;;;30.19;52.06
81931;BME280;71395;43.488;1.472;2023-08-20T00:26:11;99955.59;;;30.13;51.94
81931;BME280;71395;43.488;1.472;2023-08-20T00:28:37;99967.88;;;30.19;52.38
81931;BME280;71395;43.488;1.472;2023-08-20T00:31:04;99966.28;;;30.18;52.42
81931;BME280;71395;43.488;1.472;2023-08-20T00:33:29;99951.66;;;30.14;52.39
81931;BME280;71395;43.488;1.472;2023-08-20T00:35:54;99964.31;;;30.19;52.23
81931;BME280;71395;43.488;1.472;2023-08-20T00:38:20;99965.13;;;30.19;51.95
81931;BME280;71395;43.488;1.472;2023-08-20T00:40:45;99967.47;;;30.17;52.02
81931;BME280;71395;43.488;1.472;2023-08-20T00:43:11;99957.59;;;30.16;52.06
81931;BME280;71395;43.488;1.472;2023-08-20T00:45:36;99940.16;;;30.08;52.25
81931;BME280;71395;43.488;1.472;2023-08-20T00:48:03;99953.66;;;30.14;51.93
81931;BME280;71395;43.488;1.472;2023-08-20T00:50:29;99950.84;;;30.10;52.47
81931;BME280;71395;43.488;1.472;2023-08-20T00:52:54;99959.16;;;30.17;51.68
81931;BME280;71395;43.488;1.472;2023-08-20T00:55:20;99961.94;;;30.17;52.34
81931;BME280;71395;43.488;1.472;2023-08-20T00:57:46;99955.63;;;30.17;51.88
81931;BME280;71395;43.488;1.472;2023-08-20T01:00:11;99950.03;;;30.06;52.37
81931;BME280;71395;43.488;1.472;2023-08-20T01:02:38;99955.63;;;30.17;52.18
81931;BME280;71395;43.488;1.472;2023-08-20T01:05:05;99959.94;;;30.18;51.84
81931;BME280;71395;43.488;1.472;2023-08-20T01:10:15;99961.16;;;30.20;52.48
81931;BME280;71395;43.488;1.472;2023-08-20T01:12:43;99942.13;;;30.04;51.88
81931;BME280;71395;43.488;1.472;2023-08-20T01:15:09;99963.13;;;30.16;51.90
81931;BME280;71395;43.488;1.472;2023-08-20T01:17:42;99953.97;;;30.08;52.00
81931;BME280;71395;43.488;1.472;2023-08-20T01:20:09;99956.00;;;30.15;51.96
81931;BME280;71395;43.488;1.472;2023-08-20T01:30:42;99955.94;;;30.08;51.82
81931;BME280;71395;43.488;1.472;2023-08-20T01:33:10;99944.50;;;30.09;52.39
81931;BME280;71395;43.488;1.472;2023-08-20T01:35:37;99949.25;;;30.09;51.89
81931;BME280;71395;43.488;1.472;2023-08-20T01:38:03;99958.34;;;30.09;51.93
81931;BME280;71395;43.488;1.472;2023-08-20T01:40:29;99950.03;;;30.06;51.95
81931;BME280;71395;43.488;1.472;2023-08-20T01:42:54;99948.44;;;30.05;52.33
81931;BME280;71395;43.488;1.472;2023-08-20T01:45:20;99952.00;;;30.05;52.04
81931;BME280;71395;43.488;1.472;2023-08-20T01:47:46;99955.56;;;30.09;52.30
81931;BME280;71395;43.488;1.472;2023-08-20T01:50:12;99948.84;;;30.07;52.02
81931;BME280;71395;43.488;1.472;2023-08-20T01:52:37;99953.19;;;30.01;52.08
81931;BME280;71395;43.488;1.472;2023-08-20T01:55:03;99967.47;;;30.14;52.34
81931;BME280;71395;43.488;1.472;2023-08-20T01:57:29;99952.41;;;30.04;51.99
81931;BME280;71395;43.488;1.472;2023-08-20T01:59:54;99963.88;;;30.13;52.55
81931;BME280;71395;43.488;1.472;2023-08-20T02:02:20;99966.66;;;30.13;51.58
81931;BME280;71395;43.488;1.472;2023-08-20T02:04:45;99975.78;;;30.14;52.19
81931;BME280;71395;43.488;1.472;2023-08-20T02:07:11;99962.28;;;30.05;51.60
81931;BME280;71395;43.488;1.472;2023-08-20T02:09:36;99974.94;;;30.13;52.28
81931;BME280;71395;43.488;1.472;2023-08-20T02:12:02;99967.00;;;30.08;52.16
81931;BME280;71395;43.488;1.472;2023-08-20T02:14:28;99954.75;;;30.02;51.66
81931;BME280;71395;43.488;1.472;2023-08-20T02:16:54;99971.41;;;30.12;52.45
81931;BME280;71395;43.488;1.472;2023-08-20T02:19:19;99969.41;;;30.13;52.01
81931;BME280;71395;43.488;1.472;2023-08-20T02:21:44;99969.78;;;30.08;51.55
81931;BME280;71395;43.488;1.472;2023-08-20T02:24:10;99966.63;;;30.06;52.03
81931;BME280;71395;43.488;1.472;2023-08-20T02:26:36;99955.97;;;30.04;52.18
81931;BME280;71395;43.488;1.472;2023-08-20T02:29:01;99961.84;;;30.03;51.68
81931;BME280;71395;43.488;1.472;2023-08-20T02:31:28;99953.19;;;30.01;52.08
81931;BME280;71395;43.488;1.472;2023-08-20T02:33:53;99973.75;;;30.10;52.19
81931;BME280;71395;43.488;1.472;2023-08-20T02:36:18;99968.19;;;30.07;51.81
81931;BME280;71395;43.488;1.472;2023-08-20T02:38:45;99980.06;;;30.11;52.34
81931;BME280;71395;43.488;1.472;2023-08-20T02:41:10;99967.38;;;30.03;52.01
81931;BME280;71395;43.488;1.472;2023-08-20T02:43:37;99969.38;;;30.06;52.08
81931;BME280;71395;43.488;1.472;2023-08-20T02:46:02;99968.19;;;30.03;52.12
81931;BME280;71395;43.488;1.472;2023-08-20T02:48:29;99974.53;;;30.04;52.14
81931;BME280;71395;43.488;1.472;2023-08-20T02:50:54;99970.56;;;30.01;52.08
81931;BME280;71395;43.488;1.472;2023-08-20T02:53:20;99958.69;;;30.01;51.79
81931;BME280;71395;43.488;1.472;2023-08-20T02:55:46;99973.72;;;30.07;51.53
81931;BME280;71395;43.488;1.472;2023-08-20T02:58:12;99980.47;;;30.09;51.66
81931;BME280;71395;43.488;1.472;2023-08-20T03:00:38;99967.81;;;30.05;51.89
81931;BME280;71395;43.488;1.472;2023-08-20T03:03:03;99976.91;;;30.09;52.13
81931;BME280;71395;43.488;1.472;2023-08-20T03:05:32;99972.13;;;30.02;51.71
81931;BME280;71395;43.488;1.472;2023-08-20T03:07:58;99962.25;;;30.01;52.04
81931;BME280;71395;43.488;1.472;2023-08-20T03:10:23;99977.28;;;30.04;51.59
81931;BME280;71395;43.488;1.472;2023-08-20T03:12:49;99958.69;;;29.94;52.27
81931;BME280;71395;43.488;1.472;2023-08-20T03:15:14;99983.59;;;30.08;52.14
81931;BME280;71395;43.488;1.472;2023-08-20T03:17:40;99972.94;;;29.99;52.39
81931;BME280;71395;43.488;1.472;2023-08-20T03:20:06;99973.72;;;30.00;51.82
81931;BME280;71395;43.488;1.472;2023-08-20T03:22:32;99984.00;;;30.06;52.36
81931;BME280;71395;43.488;1.472;2023-08-20T03:24:57;99982.41;;;30.02;52.31
81931;BME280;71395;43.488;1.472;2023-08-20T03:27:23;99988.75;;;30.06;52.16
81931;BME280;71395;43.488;1.472;2023-08-20T03:29:48;99980.81;;;30.01;51.87
81931;BME280;71395;43.488;1.472;2023-08-20T03:32:14;99989.94;;;30.05;51.73
81931;BME280;71395;43.488;1.472;2023-08-20T03:34:39;99969.75;;;29.94;51.70
81931;BME280;71395;43.488;1.472;2023-08-20T03:37:05;99987.16;;;30.05;51.91
81931;BME280;71395;43.488;1.472;2023-08-20T03:39:31;99963.00;;;29.91;51.64
81931;BME280;71395;43.488;1.472;2023-08-20T03:41:56;99981.63;;;30.01;52.16
81931;BME280;71395;43.488;1.472;2023-08-20T03:44:22;99983.19;;;30.02;52.12
81931;BME280;71395;43.488;1.472;2023-08-20T03:46:47;99987.16;;;30.05;52.02
81931;BME280;71395;43.488;1.472;2023-08-20T03:49:13;99980.03;;;30.00;51.79
81931;BME280;71395;43.488;1.472;2023-08-20T03:51:38;99978.44;;;29.96;51.91
81931;BME280;71395;43.488;1.472;2023-08-20T03:54:04;99976.84;;;29.95;51.67
81931;BME280;71395;43.488;1.472;2023-08-20T03:56:29;99973.72;;;30.00;51.93
81931;BME280;71395;43.488;1.472;2023-08-20T03:58:55;99976.44;;;29.93;52.15
81931;BME280;71395;43.488;1.472;2023-08-20T04:01:20;99981.59;;;29.98;51.67
81931;BME280;71395;43.488;1.472;2023-08-20T04:03:46;99998.22;;;30.05;51.93
81931;BME280;71395;43.488;1.472;2023-08-20T04:06:13;99991.88;;;30.01;51.67
81931;BME280;71395;43.488;1.472;2023-08-20T04:08:38;100001.34;;;30.03;51.67
81931;BME280;71395;43.488;1.472;2023-08-20T04:11:03;99988.31;;;29.97;51.82
81931;BME280;71395;43.488;1.472;2023-08-20T04:13:29;99987.53;;;29.96;52.25
81931;BME280;71395;43.488;1.472;2023-08-20T04:15:55;99993.47;;;30.02;52.19
81931;BME280;71395;43.488;1.472;2023-08-20T04:18:20;99994.25;;;29.99;51.56
81931;BME280;71395;43.488;1.472;2023-08-20T04:20:46;99993.44;;;29.98;52.14
81931;BME280;71395;43.488;1.472;2023-08-20T04:23:11;99991.88;;;29.94;52.12
81931;BME280;71395;43.488;1.472;2023-08-20T04:25:37;100009.25;;;30.01;51.96
81931;BME280;71395;43.488;1.472;2023-08-20T04:28:02;100013.97;;;29.97;52.18
81931;BME280;71395;43.488;1.472;2023-08-20T04:30:28;100016.75;;;30.01;51.89
81931;BME280;71395;43.488;1.472;2023-08-20T04:32:53;100018.75;;;30.00;52.16
81931;BME280;71395;43.488;1.472;2023-08-20T04:35:18;100012.38;;;29.93;51.94
81931;BME280;71395;43.488;1.472;2023-08-20T04:37:44;100024.28;;;30.00;51.98
81931;BME280;71395;43.488;1.472;2023-08-20T04:40:10;100019.50;;;29.94;52.16
81931;BME280;71395;43.488;1.472;2023-08-20T04:42:35;100021.09;;;29.95;52.07
81931;BME280;71395;43.488;1.472;2023-08-20T04:45:00;100031.78;;;30.00;52.20
81931;BME280;71395;43.488;1.472;2023-08-20T04:47:26;100029.38;;;29.95;52.06
81931;BME280;71395;43.488;1.472;2023-08-20T04:49:51;100027.44;;;29.99;51.61
81931;BME280;71395;43.488;1.472;2023-08-20T04:52:17;100030.56;;;29.94;51.43
81931;BME280;71395;43.488;1.472;2023-08-20T04:54:44;100034.53;;;30.00;51.92
81931;BME280;71395;43.488;1.472;2023-08-20T04:57:09;100025.81;;;29.91;52.07
81931;BME280;71395;43.488;1.472;2023-08-20T04:59:35;100038.50;;;29.99;51.96
81931;BME280;71395;43.488;1.472;2023-08-20T05:02:00;100041.25;;;29.99;51.95
81931;BME280;71395;43.488;1.472;2023-08-20T05:04:25;100025.00;;;29.90;51.91
81931;BME280;71395;43.488;1.472;2023-08-20T05:06:51;100026.59;;;29.91;51.52
81931;BME280;71395;43.488;1.472;2023-08-20T05:09:16;100041.63;;;29.97;52.00
81931;BME280;71395;43.488;1.472;2023-08-20T05:11:42;100039.66;;;29.98;51.95
81931;BME280;71395;43.488;1.472;2023-08-20T05:14:07;100041.63;;;29.97;52.29
81931;BME280;71395;43.488;1.472;2023-08-20T05:16:33;100045.19;;;29.98;51.63
81931;BME280;71395;43.488;1.472;2023-08-20T05:18:58;100036.88;;;29.91;52.01
81931;BME280;71395;43.488;1.472;2023-08-20T05:21:23;100057.41;;;29.97;52.45
81931;BME280;71395;43.488;1.472;2023-08-20T05:23:49;100043.97;;;29.92;51.63
81931;BME280;71395;43.488;1.472;2023-08-20T05:26:14;100057.41;;;29.97;52.30
81931;BME280;71395;43.488;1.472;2023-08-20T05:28:40;100048.31;;;29.93;51.65
81931;BME280;71395;43.488;1.472;2023-08-20T05:31:05;100062.16;;;29.96;52.01
81931;BME280;71395;43.488;1.472;2023-08-20T05:33:31;100058.22;;;29.94;51.58
81931;BME280;71395;43.488;1.472;2023-08-20T05:35:56;100060.56;;;29.92;52.06
81931;BME280;71395;43.488;1.472;2023-08-20T05:38:22;100053.03;;;29.88;51.60
81931;BME280;71395;43.488;1.472;2023-08-20T05:40:47;100043.53;;;29.79;52.17
81931;BME280;71395;43.488;1.472;2023-08-20T05:43:12;100066.09;;;29.92;51.83
81931;BME280;71395;43.488;1.472;2023-08-20T05:45:38;100069.25;;;29.90;51.65
81931;BME280;71395;43.488;1.472;2023-08-20T05:48:03;100073.19;;;29.93;51.88
81931;BME280;71395;43.488;1.472;2023-08-20T05:50:29;100055.38;;;29.83;51.65
81931;BME280;71395;43.488;1.472;2023-08-20T05:52:54;100073.63;;;29.95;51.34
81931;BME280;71395;43.488;1.472;2023-08-20T05:55:20;100066.06;;;29.88;51.49
81931;BME280;71395;43.488;1.472;2023-08-20T05:57:45;100081.91;;;29.95;52.17
81931;BME280;71395;43.488;1.472;2023-08-20T06:00:11;100073.97;;;29.90;52.14
81931;BME280;71395;43.488;1.472;2023-08-20T06:02:37;100054.59;;;29.79;51.89
81931;BME280;71395;43.488;1.472;2023-08-20T06:05:03;100054.94;;;29.77;51.83
81931;BME280;71395;43.488;1.472;2023-08-20T06:07:30;100078.31;;;29.91;51.99
81931;BME280;71395;43.488;1.472;2023-08-20T06:09:56;100064.44;;;29.80;52.32
81931;BME280;71395;43.488;1.472;2023-08-20T06:12:22;100073.16;;;29.85;52.03
81931;BME280;71395;43.488;1.472;2023-08-20T06:14:47;100080.66;;;29.88;51.88
81931;BME280;71395;43.488;1.472;2023-08-20T06:17:13;100064.81;;;29.78;51.59
81931;BME280;71395;43.488;1.472;2023-08-20T06:19:38;100085.84;;;29.94;51.94
81931;BME280;71395;43.488;1.472;2023-08-20T06:22:03;100085.84;;;29.90;51.81
81931;BME280;71395;43.488;1.472;2023-08-20T06:24:29;100057.72;;;29.77;52.25
81931;BME280;71395;43.488;1.472;2023-08-20T06:26:54;100072.75;;;29.83;51.55
81931;BME280;71395;43.488;1.472;2023-08-20T06:29:20;100066.41;;;29.83;52.14
81931;BME280;71395;43.488;1.472;2023-08-20T06:31:47;100084.25;;;29.89;51.83
81931;BME280;71395;43.488;1.472;2023-08-20T06:34:12;100085.84;;;29.90;51.99
81931;BME280;71395;43.488;1.472;2023-08-20T06:36:38;100089.78;;;29.93;51.79
81931;BME280;71395;43.488;1.472;2023-08-20T06:39:03;100103.22;;;29.98;51.50
81931;BME280;71395;43.488;1.472;2023-08-20T06:41:29;100103.22;;;29.98;51.57
81931;BME280;71395;43.488;1.472;2023-08-20T06:43:54;100102.44;;;29.94;51.94
81931;BME280;71395;43.488;1.472;2023-08-20T06:46:20;100104.03;;;29.95;52.09
81931;BME280;71395;43.488;1.472;2023-08-20T06:48:45;100092.16;;;29.91;51.75
81931;BME280;71395;43.488;1.472;2023-08-20T06:51:11;100101.66;;;29.97;52.03
81931;BME280;71395;43.488;1.472;2023-08-20T06:53:37;100100.03;;;29.92;51.90
81931;BME280;71395;43.488;1.472;2023-08-20T06:56:03;100105.63;;;29.99;52.06
81931;BME280;71395;43.488;1.472;2023-08-20T06:58:28;100091.34;;;29.90;52.09
81931;BME280;71395;43.488;1.472;2023-08-20T07:00:54;100111.16;;;29.99;52.09
81931;BME280;71395;43.488;1.472;2023-08-20T07:03:20;100104.03;;;29.95;52.04
81931;BME280;71395;43.488;1.472;2023-08-20T07:05:46;100069.13;;;29.72;51.80
81931;BME280;71395;43.488;1.472;2023-08-20T07:08:12;100110.38;;;29.99;51.96
81931;BME280;71395;43.488;1.472;2023-08-20T07:10:37;100111.94;;;30.00;52.03
81931;BME280;71395;43.488;1.472;2023-08-20T07:13:02;100108.00;;;30.01;51.78
81931;BME280;71395;43.488;1.472;2023-08-20T07:15:29;100113.53;;;30.01;51.96
81931;BME280;71395;43.488;1.472;2023-08-20T07:17:54;100102.84;;;29.96;52.03
81931;BME280;71395;43.488;1.472;2023-08-20T07:20:20;100101.63;;;29.93;52.00
81931;BME280;71395;43.488;1.472;2023-08-20T07:22:45;100106.78;;;29.95;51.57
81931;BME280;71395;43.488;1.472;2023-08-20T07:25:10;100116.28;;;30.01;51.81
81931;BME280;71395;43.488;1.472;2023-08-20T07:27:36;100114.28;;;29.98;51.63
81931;BME280;71395;43.488;1.472;2023-08-20T07:30:01;100096.50;;;29.92;51.61
81931;BME280;71395;43.488;1.472;2023-08-20T07:32:27;100117.47;;;30.03;52.00
81931;BME280;71395;43.488;1.472;2023-08-20T07:34:53;100112.78;;;30.04;52.03
81931;BME280;71395;43.488;1.472;2023-08-20T07:37:18;100113.09;;;29.95;52.02
81931;BME280;71395;43.488;1.472;2023-08-20T07:39:43;100117.47;;;30.00;51.86
81931;BME280;71395;43.488;1.472;2023-08-20T07:42:09;100115.47;;;29.97;51.63
81931;BME280;71395;43.488;1.472;2023-08-20T07:44:36;100110.38;;;29.99;51.74
81931;BME280;71395;43.488;1.472;2023-08-20T07:47:01;100119.88;;;30.05;51.44
81931;BME280;71395;43.488;1.472;2023-08-20T07:49:27;100104.03;;;29.95;51.18
81931;BME280;71395;43.488;1.472;2023-08-20T07:51:52;100121.06;;;30.04;51.39
81931;BME280;71395;43.488;1.472;2023-08-20T07:54:19;100130.16;;;30.04;51.19
81931;BME280;71395;43.488;1.472;2023-08-20T07:56:45;100125.41;;;30.05;51.89
81931;BME280;71395;43.488;1.472;2023-08-20T07:59:10;100115.09;;;29.95;51.60
81931;BME280;71395;43.488;1.472;2023-08-20T08:01:35;100122.19;;;29.96;51.35
81931;BME280;71395;43.488;1.472;2023-08-20T08:04:01;100119.06;;;30.01;51.42
81931;BME280;71395;43.488;1.472;2023-08-20T08:06:27;100126.97;;;30.02;51.42
81931;BME280;71395;43.488;1.472;2023-08-20T08:08:52;100126.13;;;29.98;51.83
81931;BME280;71395;43.488;1.472;2023-08-20T08:11:18;100135.28;;;30.06;51.89
81931;BME280;71395;43.488;1.472;2023-08-20T08:13:43;100126.97;;;29.99;51.80
81931;BME280;71395;43.488;1.472;2023-08-20T08:16:08;100138.00;;;30.02;51.37
81931;BME280;71395;43.488;1.472;2023-08-20T08:18:34;100145.94;;;30.07;51.13
81931;BME280;71395;43.488;1.472;2023-08-20T08:20:59;100145.13;;;30.03;51.63
81931;BME280;71395;43.488;1.472;2023-08-20T08:23:25;100137.66;;;30.04;51.73
81931;BME280;71395;43.488;1.472;2023-08-20T08:25:50;100135.69;;;30.04;50.85
81931;BME280;71395;43.488;1.472;2023-08-20T08:28:15;100126.59;;;30.04;51.38
81931;BME280;71395;43.488;1.472;2023-08-20T08:30:41;100119.44;;;29.96;51.75
81931;BME280;71395;43.488;1.472;2023-08-20T08:33:06;100144.75;;;30.08;51.57
81931;BME280;71395;43.488;1.472;2023-08-20T08:35:31;100124.59;;;30.01;51.29
81931;BME280;71395;43.488;1.472;2023-08-20T08:37:57;100132.13;;;30.07;51.75
81931;BME280;71395;43.488;1.472;2023-08-20T08:40:26;100133.34;;;30.10;51.94
81931;BME280;71395;43.488;1.472;2023-08-20T08:42:53;100131.72;;;30.05;51.60
81931;BME280;71395;43.488;1.472;2023-08-20T08:45:19;100120.63;;;30.02;51.73
81931;BME280;71395;43.488;1.472;2023-08-20T08:47:45;100134.13;;;30.10;51.47
81931;BME280;71395;43.488;1.472;2023-08-20T08:50:11;100132.50;;;30.06;51.80
81931;BME280;71395;43.488;1.472;2023-08-20T08:52:37;100129.75;;;30.06;51.38
81931;BME280;71395;43.488;1.472;2023-08-20T08:55:05;100128.59;;;30.10;51.69
81931;BME280;71395;43.488;1.472;2023-08-20T08:57:33;100109.94;;;29.97;51.36
81931;BME280;71395;43.488;1.472;2023-08-20T08:59:58;100130.97;;;30.12;51.33
81931;BME280;71395;43.488;1.472;2023-08-20T09:02:23;100132.16;;;30.11;51.26
81931;BME280;71395;43.488;1.472;2023-08-20T09:04:49;100102.44;;;29.97;51.22
81931;BME280;71395;43.488;1.472;2023-08-20T09:07:15;100118.66;;;30.02;51.45
81931;BME280;71395;43.488;1.472;2023-08-20T09:09:45;100124.22;;;30.06;51.12
81931;BME280;71395;43.488;1.472;2023-08-20T09:12:15;100130.56;;;30.10;51.68
81931;BME280;71395;43.488;1.472;2023-08-20T09:14:53;100127.81;;;30.10;51.54
81931;BME280;71395;43.488;1.472;2023-08-20T09:17:25;100120.28;;;30.07;51.36
81931;BME280;71395;43.488;1.472;2023-08-20T09:19:50;100137.31;;;30.12;51.32
81931;BME280;71395;43.488;1.472;2023-08-20T09:22:16;100127.38;;;30.08;51.63
81931;BME280;71395;43.488;1.472;2023-08-20T09:24:44;100116.75;;;30.10;51.41
81931;BME280;71395;43.488;1.472;2023-08-20T09:27:11;100097.31;;;29.96;50.94
81931;BME280;71395;43.488;1.472;2023-08-20T09:29:44;100126.22;;;30.09;51.61
81931;BME280;71395;43.488;1.472;2023-08-20T09:32:15;100120.72;;;30.12;51.34
81931;BME280;71395;43.488;1.472;2023-08-20T09:34:41;100100.47;;;29.98;51.77
81931;BME280;71395;43.488;1.472;2023-08-20T09:37:10;100113.19;;;30.09;51.21
81931;BME280;71395;43.488;1.472;2023-08-20T09:39:37;100117.53;;;30.10;51.22
81931;BME280;71395;43.488;1.472;2023-08-20T09:42:04;100125.50;;;30.16;51.23
81931;BME280;71395;43.488;1.472;2023-08-20T09:44:35;100127.06;;;30.17;51.26
81931;BME280;71395;43.488;1.472;2023-08-20T09:47:11;100108.84;;;30.12;51.07
81931;BME280;71395;43.488;1.472;2023-08-20T09:49:39;100113.97;;;30.10;51.52
81931;BME280;71395;43.488;1.472;2023-08-20T09:52:06;100112.78;;;30.11;51.66
81931;BME280;71395;43.488;1.472;2023-08-20T09:57:33;100107.25;;;30.04;50.97
81931;BME280;71395;43.488;1.472;2023-08-20T10:00:00;100108.03;;;30.08;51.62
81931;BME280;71395;43.488;1.472;2023-08-20T10:02:26;100112.41;;;30.09;51.21
81931;BME280;71395;43.488;1.472;2023-08-20T10:04:52;100115.94;;;30.09;51.61
81931;BME280;71395;43.488;1.472;2023-08-20T10:07:18;100131.03;;;30.19;51.82
81931;BME280;71395;43.488;1.472;2023-08-20T10:09:45;100108.44;;;30.10;51.68
81931;BME280;71395;43.488;1.472;2023-08-20T10:12:14;100106.06;;;30.08;51.66
81931;BME280;71395;43.488;1.472;2023-08-20T10:14:40;100117.97;;;30.16;51.63
81931;BME280;71395;43.488;1.472;2023-08-20T10:17:09;100123.16;;;30.21;51.34
81931;BME280;71395;43.488;1.472;2023-08-20T10:19:36;100086.66;;;29.94;51.59
81931;BME280;71395;43.488;1.472;2023-08-20T10:22:03;100112.06;;;30.18;51.37
81931;BME280;71395;43.488;1.472;2023-08-20T10:24:49;100083.94;;;30.08;51.38
81931;BME280;71395;43.488;1.472;2023-08-20T10:27:25;100099.81;;;30.15;51.71
81931;BME280;71395;43.488;1.472;2023-08-20T10:29:53;100098.63;;;30.16;50.96
81931;BME280;71395;43.488;1.472;2023-08-20T10:32:18;100107.34;;;30.22;50.92
81931;BME280;71395;43.488;1.472;2023-08-20T10:34:50;100095.47;;;30.14;51.50
81931;BME280;71395;43.488;1.472;2023-08-20T10:37:26;100106.94;;;30.23;51.06
81931;BME280;71395;43.488;1.472;2023-08-20T10:39:55;100087.53;;;30.12;51.59
81931;BME280;71395;43.488;1.472;2023-08-20T10:42:25;100104.97;;;30.20;51.28
81931;BME280;71395;43.488;1.472;2023-08-20T10:45:08;100084.78;;;30.12;51.32
81931;BME280;71395;43.488;1.472;2023-08-20T10:47:47;100094.72;;;30.24;50.85
81931;BME280;71395;43.488;1.472;2023-08-20T10:50:18;100093.91;;;30.20;51.34
81931;BME280;71395;43.488;1.472;2023-08-20T10:52:48;100078.03;;;30.10;51.69
81931;BME280;71395;43.488;1.472;2023-08-20T10:55:14;100088.38;;;30.20;51.33
81931;BME280;71395;43.488;1.472;2023-08-20T10:57:40;100079.66;;;30.18;51.48
81931;BME280;71395;43.488;1.472;2023-08-20T11:00:07;100086.78;;;30.19;50.87
81931;BME280;71395;43.488;1.472;2023-08-20T11:02:40;100082.81;;;30.17;51.38
81931;BME280;71395;43.488;1.472;2023-08-20T11:05:17;100090.34;;;30.23;50.80
81931;BME280;71395;43.488;1.472;2023-08-20T11:07:45;100091.56;;;30.26;50.89
81931;BME280;71395;43.488;1.472;2023-08-20T11:10:16;100090.75;;;30.25;51.23
81931;BME280;71395;43.488;1.472;2023-08-20T11:12:45;100080.09;;;30.24;51.05
81931;BME280;71395;43.488;1.472;2023-08-20T11:15:11;100082.06;;;30.27;51.35
81931;BME280;71395;43.488;1.472;2023-08-20T11:17:46;100074.56;;;30.24;50.92
81931;BME280;71395;43.488;1.472;2023-08-20T11:20:14;100076.53;;;30.23;51.22
81931;BME280;71395;43.488;1.472;2023-08-20T11:22:40;100071.78;;;30.27;51.03
81931;BME280;71395;43.488;1.472;2023-08-20T11:25:10;100055.56;;;30.15;50.98
81931;BME280;71395;43.488;1.472;2023-08-20T11:27:40;100059.53;;;30.21;51.26
81931;BME280;71395;43.488;1.472;2023-08-20T11:30:07;100058.72;;;30.17;51.08
81931;BME280;71395;43.488;1.472;2023-08-20T11:32:33;100068.66;;;30.29;51.81
81931;BME280;71395;43.488;1.472;2023-08-20T11:34:59;100062.31;;;30.25;51.51
81931;BME280;71395;43.488;1.472;2023-08-20T11:37:24;100062.31;;;30.25;51.33
81931;BME280;71395;43.488;1.472;2023-08-20T11:39:50;100066.66;;;30.26;51.31
81931;BME280;71395;43.488;1.472;2023-08-20T11:42:16;100057.19;;;30.30;51.07
81931;BME280;71395;43.488;1.472;2023-08-20T11:44:46;100065.50;;;30.30;51.40
81931;BME280;71395;43.488;1.472;2023-08-20T11:47:16;100055.19;;;30.27;51.07
81931;BME280;71395;43.488;1.472;2023-08-20T11:49:41;100049.66;;;30.20;51.16
81931;BME280;71395;43.488;1.472;2023-08-20T11:52:07;100049.66;;;30.27;51.41
81931;BME280;71395;43.488;1.472;2023-08-20T11:54:32;100065.50;;;30.30;51.17
81931;BME280;71395;43.488;1.472;2023-08-20T11:57:04;100046.09;;;30.23;51.13
81931;BME280;71395;43.488;1.472;2023-08-20T11:59:30;100056.00;;;30.31;50.86
81931;BME280;71395;43.488;1.472;2023-08-20T12:02:00;100057.59;;;30.32;51.26
81931;BME280;71395;43.488;1.472;2023-08-20T12:04:30;100053.66;;;30.33;51.11
81931;BME280;71395;43.488;1.472;2023-08-20T12:07:09;100047.31;;;30.29;50.86
81931;BME280;71395;43.488;1.472;2023-08-20T12:09:35;100041.38;;;30.24;51.37
81931;BME280;71395;43.488;1.472;2023-08-20T12:12:01;100050.91;;;30.33;51.43
81931;BME280;71395;43.488;1.472;2023-08-20T12:14:27;100052.84;;;30.33;51.45
81931;BME280;71395;43.488;1.472;2023-08-20T12:16:55;100048.91;;;30.30;50.94
81931;BME280;71395;43.488;1.472;2023-08-20T12:19:21;100044.94;;;30.31;51.19
81931;BME280;71395;43.488;1.472;2023-08-20T12:21:47;100038.63;;;30.31;50.93
81931;BME280;71395;43.488;1.472;2023-08-20T12:24:12;100047.34;;;30.36;51.16
81931;BME280;71395;43.488;1.472;2023-08-20T12:26:39;100036.25;;;30.33;50.85
81931;BME280;71395;43.488;1.472;2023-08-20T12:29:04;100033.06;;;30.27;51.41
81931;BME280;71395;43.488;1.472;2023-08-20T12:31:34;100036.25;;;30.36;51.45
81931;BME280;71395;43.488;1.472;2023-08-20T12:34:00;100026.78;;;30.37;50.94
81931;BME280;71395;43.488;1.472;2023-08-20T12:36:26;100022.03;;;30.31;51.12
81931;BME280;71395;43.488;1.472;2023-08-20T12:38:52;100030.72;;;30.36;51.68
81931;BME280;71395;43.488;1.472;2023-08-20T12:41:18;100020.47;;;30.33;50.85
81931;BME280;71395;43.488;1.472;2023-08-20T12:43:44;100029.16;;;30.35;50.56
81931;BME280;71395;43.488;1.472;2023-08-20T12:46:09;100027.56;;;30.34;51.27
81931;BME280;71395;43.488;1.472;2023-08-20T12:48:35;100028.38;;;30.38;50.74
81931;BME280;71395;43.488;1.472;2023-08-20T12:51:01;100022.03;;;30.34;51.04
81931;BME280;71395;43.488;1.472;2023-08-20T12:53:28;100018.09;;;30.35;51.00
81931;BME280;71395;43.488;1.472;2023-08-20T12:55:53;100000.66;;;30.28;51.54
81931;BME280;71395;43.488;1.472;2023-08-20T12:58:18;100012.16;;;30.33;51.15
81931;BME280;71395;43.488;1.472;2023-08-20T13:00:44;100016.91;;;30.40;51.43
81931;BME280;71395;43.488;1.472;2023-08-20T13:03:10;100011.78;;;30.38;51.44